LCRA/AKT METAR and TAF weather

Enter ICAO airport designator
Station Type Date Time Source
LCRA METAR 2020/01/22 15:20 UTC NOAA

LCRA 221520Z 25006KT 9999 FEW039 13/05 Q1021 NOSIG RMK BLU BLU


Station Type Date Time Source
LCRA Decoded METAR 2020/01/22 15:20 UTC NOAA

Akrotiri, Cyprus (LCRA) 34-35N 032-59E 0M
Jan 22, 2020 - 10:20 AM EST / 2020.01.22 1520 UTC
Wind: from the WSW (250 degrees) at 7 MPH (6 KT):0
Visibility: greater than 7 mile(s):0
Sky conditions: mostly clear
Temperature: 55 F (13 C)
Dew Point: 41 F (5 C)
Relative Humidity: 58%
Pressure (altimeter): 30.15 in. Hg (1021 hPa)
ob: LCRA 221520Z 25006KT 9999 FEW039 13/05 Q1021 NOSIG RMK BLU BLU
cycle: 15

Station Type Date Time Source
LCRA TAF 2020/01/22 15:55 UTC NOAA

TAF LCRA 221351Z 2215/2309 25007KT CAVOK

Example: see airport list